sensor_id;sensor_type;location;lat;lon;timestamp;P1;durP1;ratioP1;P2;durP2;ratioP2
32633;SDS011;19043;51.012;5.648;2022-11-20T00:00:23;31.00;;;22.77;;
32633;SDS011;19043;51.012;5.648;2022-11-20T00:02:49;34.88;;;22.92;;
32633;SDS011;19043;51.012;5.648;2022-11-20T00:05:14;29.85;;;23.85;;
32633;SDS011;19043;51.012;5.648;2022-11-20T00:07:39;29.95;;;23.40;;
32633;SDS011;19043;51.012;5.648;2022-11-20T00:10:05;29.60;;;21.58;;
32633;SDS011;19043;51.012;5.648;2022-11-20T00:12:30;28.20;;;21.50;;
32633;SDS011;19043;51.012;5.648;2022-11-20T00:14:56;30.38;;;21.95;;
32633;SDS011;19043;51.012;5.648;2022-11-20T00:17:21;31.88;;;21.27;;
32633;SDS011;19043;51.012;5.648;2022-11-20T00:19:46;30.33;;;22.10;;
32633;SDS011;19043;51.012;5.648;2022-11-20T00:22:11;38.17;;;23.10;;
32633;SDS011;19043;51.012;5.648;2022-11-20T00:24:37;27.80;;;21.73;;
32633;SDS011;19043;51.012;5.648;2022-11-20T00:27:02;31.70;;;21.63;;
32633;SDS011;19043;51.012;5.648;2022-11-20T00:29:27;28.85;;;21.20;;
32633;SDS011;19043;51.012;5.648;2022-11-20T00:31:52;24.38;;;20.40;;
32633;SDS011;19043;51.012;5.648;2022-11-20T00:34:17;26.97;;;20.57;;
32633;SDS011;19043;51.012;5.648;2022-11-20T00:36:43;30.40;;;21.33;;
32633;SDS011;19043;51.012;5.648;2022-11-20T00:39:08;27.85;;;20.38;;
32633;SDS011;19043;51.012;5.648;2022-11-20T00:41:33;29.50;;;22.47;;
32633;SDS011;19043;51.012;5.648;2022-11-20T00:43:58;27.38;;;20.98;;
32633;SDS011;19043;51.012;5.648;2022-11-20T00:46:25;28.88;;;20.23;;
32633;SDS011;19043;51.012;5.648;2022-11-20T00:48:50;29.02;;;21.23;;
32633;SDS011;19043;51.012;5.648;2022-11-20T00:51:16;29.05;;;21.77;;
32633;SDS011;19043;51.012;5.648;2022-11-20T00:53:42;29.52;;;22.65;;
32633;SDS011;19043;51.012;5.648;2022-11-20T00:56:10;31.67;;;21.75;;
32633;SDS011;19043;51.012;5.648;2022-11-20T00:58:36;26.02;;;19.73;;
32633;SDS011;19043;51.012;5.648;2022-11-20T01:03:34;28.58;;;20.83;;
32633;SDS011;19043;51.012;5.648;2022-11-20T01:06:00;26.55;;;21.13;;
32633;SDS011;19043;51.012;5.648;2022-11-20T01:08:28;29.05;;;22.00;;
32633;SDS011;19043;51.012;5.648;2022-11-20T01:10:58;27.75;;;19.88;;
32633;SDS011;19043;51.012;5.648;2022-11-20T01:13:23;30.65;;;20.45;;
32633;SDS011;19043;51.012;5.648;2022-11-20T01:16:04;27.98;;;19.98;;
32633;SDS011;19043;51.012;5.648;2022-11-20T01:18:29;30.42;;;19.75;;
32633;SDS011;19043;51.012;5.648;2022-11-20T01:20:55;32.35;;;21.30;;
32633;SDS011;19043;51.012;5.648;2022-11-20T01:23:20;30.13;;;21.30;;
32633;SDS011;19043;51.012;5.648;2022-11-20T01:25:45;25.50;;;20.60;;
32633;SDS011;19043;51.012;5.648;2022-11-20T01:28:10;28.85;;;20.17;;
32633;SDS011;19043;51.012;5.648;2022-11-20T01:30:35;28.23;;;20.58;;
32633;SDS011;19043;51.012;5.648;2022-11-20T01:33:01;26.55;;;21.20;;
32633;SDS011;19043;51.012;5.648;2022-11-20T01:35:26;30.15;;;20.50;;
32633;SDS011;19043;51.012;5.648;2022-11-20T01:37:51;30.25;;;19.95;;
32633;SDS011;19043;51.012;5.648;2022-11-20T01:40:16;37.60;;;21.55;;
32633;SDS011;19043;51.012;5.648;2022-11-20T01:42:45;29.25;;;20.63;;
32633;SDS011;19043;51.012;5.648;2022-11-20T01:48:14;29.85;;;21.50;;
32633;SDS011;19043;51.012;5.648;2022-11-20T01:50:39;29.17;;;20.40;;
32633;SDS011;19043;51.012;5.648;2022-11-20T01:53:06;27.85;;;20.52;;
32633;SDS011;19043;51.012;5.648;2022-11-20T01:55:32;32.58;;;21.38;;
32633;SDS011;19043;51.012;5.648;2022-11-20T01:57:59;27.58;;;21.00;;
32633;SDS011;19043;51.012;5.648;2022-11-20T02:00:26;27.95;;;18.65;;
32633;SDS011;19043;51.012;5.648;2022-11-20T02:02:53;30.42;;;21.60;;
32633;SDS011;19043;51.012;5.648;2022-11-20T02:08:04;30.80;;;22.10;;
32633;SDS011;19043;51.012;5.648;2022-11-20T02:10:30;30.77;;;22.52;;
32633;SDS011;19043;51.012;5.648;2022-11-20T02:12:55;34.90;;;23.00;;
32633;SDS011;19043;51.012;5.648;2022-11-20T02:15:40;33.08;;;22.40;;
32633;SDS011;19043;51.012;5.648;2022-11-20T02:18:05;28.25;;;21.15;;
32633;SDS011;19043;51.012;5.648;2022-11-20T02:20:30;27.75;;;20.58;;
32633;SDS011;19043;51.012;5.648;2022-11-20T02:23:10;27.65;;;20.92;;
32633;SDS011;19043;51.012;5.648;2022-11-20T02:25:36;29.67;;;22.92;;
32633;SDS011;19043;51.012;5.648;2022-11-20T02:28:02;31.30;;;23.20;;
32633;SDS011;19043;51.012;5.648;2022-11-20T02:30:28;33.60;;;21.95;;
32633;SDS011;19043;51.012;5.648;2022-11-20T02:32:53;28.15;;;21.35;;
32633;SDS011;19043;51.012;5.648;2022-11-20T02:37:44;29.73;;;21.53;;
32633;SDS011;19043;51.012;5.648;2022-11-20T02:40:10;31.08;;;21.65;;
32633;SDS011;19043;51.012;5.648;2022-11-20T02:42:36;26.20;;;21.35;;
32633;SDS011;19043;51.012;5.648;2022-11-20T02:45:01;26.23;;;20.42;;
32633;SDS011;19043;51.012;5.648;2022-11-20T02:47:26;26.17;;;20.63;;
32633;SDS011;19043;51.012;5.648;2022-11-20T02:49:52;32.80;;;21.40;;
32633;SDS011;19043;51.012;5.648;2022-11-20T02:52:17;27.98;;;21.20;;
32633;SDS011;19043;51.012;5.648;2022-11-20T02:54:42;32.58;;;22.38;;
32633;SDS011;19043;51.012;5.648;2022-11-20T02:57:07;27.52;;;22.33;;
32633;SDS011;19043;51.012;5.648;2022-11-20T02:59:32;33.88;;;22.85;;
32633;SDS011;19043;51.012;5.648;2022-11-20T03:01:58;31.25;;;21.52;;
32633;SDS011;19043;51.012;5.648;2022-11-20T03:04:23;34.55;;;21.02;;
32633;SDS011;19043;51.012;5.648;2022-11-20T03:06:48;31.88;;;22.35;;
32633;SDS011;19043;51.012;5.648;2022-11-20T03:09:13;27.70;;;20.75;;
32633;SDS011;19043;51.012;5.648;2022-11-20T03:11:39;33.53;;;21.95;;
32633;SDS011;19043;51.012;5.648;2022-11-20T03:14:04;26.95;;;20.70;;
32633;SDS011;19043;51.012;5.648;2022-11-20T03:16:30;28.20;;;21.70;;
32633;SDS011;19043;51.012;5.648;2022-11-20T03:18:55;28.88;;;22.02;;
32633;SDS011;19043;51.012;5.648;2022-11-20T03:21:20;27.75;;;20.50;;
32633;SDS011;19043;51.012;5.648;2022-11-20T03:23:46;26.70;;;20.83;;
32633;SDS011;19043;51.012;5.648;2022-11-20T03:28:36;26.23;;;20.45;;
32633;SDS011;19043;51.012;5.648;2022-11-20T03:31:12;28.63;;;20.65;;
32633;SDS011;19043;51.012;5.648;2022-11-20T03:33:39;28.40;;;21.60;;
32633;SDS011;19043;51.012;5.648;2022-11-20T03:36:05;29.25;;;20.40;;
32633;SDS011;19043;51.012;5.648;2022-11-20T03:38:31;28.77;;;21.25;;
32633;SDS011;19043;51.012;5.648;2022-11-20T03:41:00;27.73;;;21.38;;
32633;SDS011;19043;51.012;5.648;2022-11-20T03:43:25;26.05;;;20.13;;
32633;SDS011;19043;51.012;5.648;2022-11-20T03:45:51;32.67;;;22.05;;
32633;SDS011;19043;51.012;5.648;2022-11-20T03:48:16;26.23;;;20.35;;
32633;SDS011;19043;51.012;5.648;2022-11-20T03:50:41;28.15;;;21.00;;
32633;SDS011;19043;51.012;5.648;2022-11-20T03:53:06;26.63;;;20.17;;
32633;SDS011;19043;51.012;5.648;2022-11-20T03:55:32;33.07;;;20.70;;
32633;SDS011;19043;51.012;5.648;2022-11-20T03:57:57;28.02;;;20.80;;
32633;SDS011;19043;51.012;5.648;2022-11-20T04:00:22;25.27;;;20.52;;
32633;SDS011;19043;51.012;5.648;2022-11-20T04:02:47;27.77;;;20.20;;
32633;SDS011;19043;51.012;5.648;2022-11-20T04:05:12;29.20;;;22.60;;
32633;SDS011;19043;51.012;5.648;2022-11-20T04:07:38;26.75;;;19.17;;
32633;SDS011;19043;51.012;5.648;2022-11-20T04:10:03;30.38;;;21.10;;
32633;SDS011;19043;51.012;5.648;2022-11-20T04:12:31;27.75;;;21.00;;
32633;SDS011;19043;51.012;5.648;2022-11-20T04:14:56;28.75;;;20.27;;
32633;SDS011;19043;51.012;5.648;2022-11-20T04:17:22;27.35;;;20.70;;
32633;SDS011;19043;51.012;5.648;2022-11-20T04:19:47;30.90;;;21.83;;
32633;SDS011;19043;51.012;5.648;2022-11-20T04:22:12;38.70;;;21.85;;
32633;SDS011;19043;51.012;5.648;2022-11-20T04:24:38;33.90;;;21.27;;
32633;SDS011;19043;51.012;5.648;2022-11-20T04:27:03;26.52;;;19.83;;
32633;SDS011;19043;51.012;5.648;2022-11-20T04:29:28;26.23;;;19.55;;
32633;SDS011;19043;51.012;5.648;2022-11-20T04:31:53;31.42;;;20.88;;
32633;SDS011;19043;51.012;5.648;2022-11-20T04:34:19;25.63;;;20.38;;
32633;SDS011;19043;51.012;5.648;2022-11-20T04:36:44;29.13;;;20.58;;
32633;SDS011;19043;51.012;5.648;2022-11-20T04:39:12;27.42;;;20.27;;
32633;SDS011;19043;51.012;5.648;2022-11-20T04:41:39;27.88;;;19.45;;
32633;SDS011;19043;51.012;5.648;2022-11-20T04:44:05;30.17;;;20.20;;
32633;SDS011;19043;51.012;5.648;2022-11-20T04:46:37;28.60;;;19.95;;
32633;SDS011;19043;51.012;5.648;2022-11-20T04:49:03;29.15;;;20.65;;
32633;SDS011;19043;51.012;5.648;2022-11-20T04:51:28;26.58;;;19.77;;
32633;SDS011;19043;51.012;5.648;2022-11-20T04:53:54;26.63;;;20.33;;
32633;SDS011;19043;51.012;5.648;2022-11-20T04:56:19;27.02;;;19.98;;
32633;SDS011;19043;51.012;5.648;2022-11-20T04:58:44;27.02;;;21.02;;
32633;SDS011;19043;51.012;5.648;2022-11-20T05:01:20;27.73;;;19.88;;
32633;SDS011;19043;51.012;5.648;2022-11-20T05:03:45;29.98;;;20.75;;
32633;SDS011;19043;51.012;5.648;2022-11-20T05:06:11;28.75;;;19.45;;
32633;SDS011;19043;51.012;5.648;2022-11-20T05:08:36;26.75;;;19.10;;
32633;SDS011;19043;51.012;5.648;2022-11-20T05:11:02;24.63;;;20.10;;
32633;SDS011;19043;51.012;5.648;2022-11-20T05:13:28;25.02;;;18.80;;
32633;SDS011;19043;51.012;5.648;2022-11-20T05:15:53;27.20;;;19.00;;
32633;SDS011;19043;51.012;5.648;2022-11-20T05:18:19;29.45;;;20.80;;
32633;SDS011;19043;51.012;5.648;2022-11-20T05:20:44;31.35;;;21.85;;
32633;SDS011;19043;51.012;5.648;2022-11-20T05:23:09;28.90;;;22.70;;
32633;SDS011;19043;51.012;5.648;2022-11-20T05:25:34;28.77;;;21.50;;
32633;SDS011;19043;51.012;5.648;2022-11-20T05:27:59;30.38;;;21.80;;
32633;SDS011;19043;51.012;5.648;2022-11-20T05:30:25;26.75;;;20.63;;
32633;SDS011;19043;51.012;5.648;2022-11-20T05:32:50;31.60;;;22.42;;
32633;SDS011;19043;51.012;5.648;2022-11-20T05:35:15;28.67;;;21.73;;
32633;SDS011;19043;51.012;5.648;2022-11-20T05:37:40;29.67;;;22.33;;
32633;SDS011;19043;51.012;5.648;2022-11-20T05:40:06;34.65;;;23.67;;
32633;SDS011;19043;51.012;5.648;2022-11-20T05:42:31;38.70;;;26.10;;
32633;SDS011;19043;51.012;5.648;2022-11-20T05:45:01;38.30;;;25.92;;
32633;SDS011;19043;51.012;5.648;2022-11-20T05:47:27;45.65;;;27.20;;
32633;SDS011;19043;51.012;5.648;2022-11-20T05:49:52;45.92;;;27.50;;
32633;SDS011;19043;51.012;5.648;2022-11-20T05:52:17;43.67;;;29.83;;
32633;SDS011;19043;51.012;5.648;2022-11-20T05:54:43;46.08;;;29.95;;
32633;SDS011;19043;51.012;5.648;2022-11-20T05:57:08;53.70;;;31.05;;
32633;SDS011;19043;51.012;5.648;2022-11-20T05:59:33;51.65;;;32.45;;
32633;SDS011;19043;51.012;5.648;2022-11-20T06:01:58;55.10;;;32.38;;
32633;SDS011;19043;51.012;5.648;2022-11-20T06:04:23;44.92;;;30.25;;
32633;SDS011;19043;51.012;5.648;2022-11-20T06:06:49;44.17;;;30.05;;
32633;SDS011;19043;51.012;5.648;2022-11-20T06:09:14;46.10;;;33.65;;
32633;SDS011;19043;51.012;5.648;2022-11-20T06:11:39;49.78;;;29.48;;
32633;SDS011;19043;51.012;5.648;2022-11-20T06:14:04;53.25;;;33.05;;
32633;SDS011;19043;51.012;5.648;2022-11-20T06:16:30;56.80;;;34.65;;
32633;SDS011;19043;51.012;5.648;2022-11-20T06:18:55;62.15;;;33.42;;
32633;SDS011;19043;51.012;5.648;2022-11-20T06:21:21;57.97;;;34.42;;
32633;SDS011;19043;51.012;5.648;2022-11-20T06:23:46;48.80;;;32.90;;
32633;SDS011;19043;51.012;5.648;2022-11-20T06:26:13;51.72;;;34.65;;
32633;SDS011;19043;51.012;5.648;2022-11-20T06:28:39;56.45;;;36.17;;
32633;SDS011;19043;51.012;5.648;2022-11-20T06:31:05;53.40;;;35.47;;
32633;SDS011;19043;51.012;5.648;2022-11-20T06:33:30;57.42;;;35.80;;
32633;SDS011;19043;51.012;5.648;2022-11-20T06:35:56;55.80;;;36.35;;
32633;SDS011;19043;51.012;5.648;2022-11-20T06:38:21;62.22;;;39.08;;
32633;SDS011;19043;51.012;5.648;2022-11-20T06:40:47;59.67;;;39.08;;
32633;SDS011;19043;51.012;5.648;2022-11-20T06:43:12;51.90;;;35.50;;
32633;SDS011;19043;51.012;5.648;2022-11-20T06:45:37;61.00;;;36.17;;
32633;SDS011;19043;51.012;5.648;2022-11-20T06:48:02;55.08;;;35.30;;
32633;SDS011;19043;51.012;5.648;2022-11-20T06:50:28;58.30;;;36.80;;
32633;SDS011;19043;51.012;5.648;2022-11-20T06:52:53;61.30;;;38.85;;
32633;SDS011;19043;51.012;5.648;2022-11-20T06:55:18;54.97;;;37.28;;
32633;SDS011;19043;51.012;5.648;2022-11-20T06:57:44;53.78;;;36.55;;
32633;SDS011;19043;51.012;5.648;2022-11-20T07:00:09;50.75;;;35.13;;
32633;SDS011;19043;51.012;5.648;2022-11-20T07:02:34;54.88;;;36.47;;
32633;SDS011;19043;51.012;5.648;2022-11-20T07:05:00;53.03;;;33.92;;
32633;SDS011;19043;51.012;5.648;2022-11-20T07:07:25;50.42;;;33.72;;
32633;SDS011;19043;51.012;5.648;2022-11-20T07:09:50;57.53;;;34.63;;
32633;SDS011;19043;51.012;5.648;2022-11-20T07:12:16;51.05;;;32.35;;
32633;SDS011;19043;51.012;5.648;2022-11-20T07:14:41;50.50;;;32.08;;
32633;SDS011;19043;51.012;5.648;2022-11-20T07:17:06;50.58;;;32.05;;
32633;SDS011;19043;51.012;5.648;2022-11-20T07:19:31;48.42;;;30.92;;
32633;SDS011;19043;51.012;5.648;2022-11-20T07:21:57;49.10;;;30.30;;
32633;SDS011;19043;51.012;5.648;2022-11-20T07:24:22;45.95;;;29.90;;
32633;SDS011;19043;51.012;5.648;2022-11-20T07:26:47;47.90;;;29.33;;
32633;SDS011;19043;51.012;5.648;2022-11-20T07:29:15;42.15;;;27.90;;
32633;SDS011;19043;51.012;5.648;2022-11-20T07:31:41;39.00;;;25.95;;
32633;SDS011;19043;51.012;5.648;2022-11-20T07:34:06;38.97;;;28.17;;
32633;SDS011;19043;51.012;5.648;2022-11-20T07:36:32;48.35;;;29.63;;
32633;SDS011;19043;51.012;5.648;2022-11-20T07:38:57;44.50;;;30.48;;
32633;SDS011;19043;51.012;5.648;2022-11-20T07:41:22;47.33;;;28.73;;
32633;SDS011;19043;51.012;5.648;2022-11-20T07:43:47;44.55;;;27.83;;
32633;SDS011;19043;51.012;5.648;2022-11-20T07:46:12;43.47;;;29.23;;
32633;SDS011;19043;51.012;5.648;2022-11-20T07:48:38;43.08;;;27.60;;
32633;SDS011;19043;51.012;5.648;2022-11-20T07:51:03;41.05;;;27.77;;
32633;SDS011;19043;51.012;5.648;2022-11-20T07:53:28;39.22;;;27.05;;
32633;SDS011;19043;51.012;5.648;2022-11-20T07:55:53;41.83;;;28.45;;
32633;SDS011;19043;51.012;5.648;2022-11-20T07:58:19;53.33;;;30.55;;
32633;SDS011;19043;51.012;5.648;2022-11-20T08:00:45;43.05;;;29.48;;
32633;SDS011;19043;51.012;5.648;2022-11-20T08:03:10;50.30;;;29.58;;
32633;SDS011;19043;51.012;5.648;2022-11-20T08:05:35;50.42;;;29.77;;
32633;SDS011;19043;51.012;5.648;2022-11-20T08:08:02;39.88;;;27.73;;
32633;SDS011;19043;51.012;5.648;2022-11-20T08:10:27;46.90;;;30.38;;
32633;SDS011;19043;51.012;5.648;2022-11-20T08:12:53;43.75;;;30.30;;
32633;SDS011;19043;51.012;5.648;2022-11-20T08:15:37;43.60;;;27.47;;
32633;SDS011;19043;51.012;5.648;2022-11-20T08:18:03;47.80;;;27.90;;
32633;SDS011;19043;51.012;5.648;2022-11-20T08:20:29;40.83;;;28.92;;
32633;SDS011;19043;51.012;5.648;2022-11-20T08:22:57;45.97;;;28.92;;
32633;SDS011;19043;51.012;5.648;2022-11-20T08:25:22;44.33;;;28.00;;
32633;SDS011;19043;51.012;5.648;2022-11-20T08:27:47;45.28;;;29.08;;
32633;SDS011;19043;51.012;5.648;2022-11-20T08:30:13;36.42;;;26.13;;
32633;SDS011;19043;51.012;5.648;2022-11-20T08:32:38;46.50;;;28.63;;
32633;SDS011;19043;51.012;5.648;2022-11-20T08:35:03;40.88;;;27.00;;
32633;SDS011;19043;51.012;5.648;2022-11-20T08:37:29;40.88;;;28.33;;
32633;SDS011;19043;51.012;5.648;2022-11-20T08:39:54;43.90;;;28.47;;
32633;SDS011;19043;51.012;5.648;2022-11-20T08:42:21;44.90;;;28.00;;
32633;SDS011;19043;51.012;5.648;2022-11-20T08:44:47;47.47;;;29.15;;
32633;SDS011;19043;51.012;5.648;2022-11-20T08:47:12;38.95;;;27.58;;
32633;SDS011;19043;51.012;5.648;2022-11-20T08:49:37;45.33;;;26.60;;
32633;SDS011;19043;51.012;5.648;2022-11-20T08:52:02;41.00;;;28.88;;
32633;SDS011;19043;51.012;5.648;2022-11-20T08:54:28;41.13;;;27.65;;
32633;SDS011;19043;51.012;5.648;2022-11-20T08:56:53;43.67;;;28.13;;
32633;SDS011;19043;51.012;5.648;2022-11-20T08:59:19;46.88;;;29.05;;
32633;SDS011;19043;51.012;5.648;2022-11-20T09:01:44;42.03;;;30.27;;
32633;SDS011;19043;51.012;5.648;2022-11-20T09:04:09;53.28;;;32.63;;
32633;SDS011;19043;51.012;5.648;2022-11-20T09:06:34;45.15;;;31.00;;
32633;SDS011;19043;51.012;5.648;2022-11-20T09:09:00;48.05;;;31.40;;
32633;SDS011;19043;51.012;5.648;2022-11-20T09:11:25;52.60;;;31.67;;
32633;SDS011;19043;51.012;5.648;2022-11-20T09:13:50;41.60;;;30.10;;
32633;SDS011;19043;51.012;5.648;2022-11-20T09:16:16;45.30;;;30.13;;
32633;SDS011;19043;51.012;5.648;2022-11-20T09:18:41;41.88;;;29.95;;
32633;SDS011;19043;51.012;5.648;2022-11-20T09:21:08;42.13;;;29.77;;
32633;SDS011;19043;51.012;5.648;2022-11-20T09:23:35;39.03;;;27.55;;
32633;SDS011;19043;51.012;5.648;2022-11-20T09:26:04;48.88;;;31.55;;
32633;SDS011;19043;51.012;5.648;2022-11-20T09:28:30;46.20;;;30.58;;
32633;SDS011;19043;51.012;5.648;2022-11-20T09:30:56;43.38;;;29.85;;
32633;SDS011;19043;51.012;5.648;2022-11-20T09:33:21;44.97;;;30.20;;
32633;SDS011;19043;51.012;5.648;2022-11-20T09:35:46;47.88;;;28.80;;
32633;SDS011;19043;51.012;5.648;2022-11-20T09:38:11;48.60;;;30.65;;
32633;SDS011;19043;51.012;5.648;2022-11-20T09:40:40;49.95;;;32.13;;
32633;SDS011;19043;51.012;5.648;2022-11-20T09:48:36;43.95;;;29.52;;
32633;SDS011;19043;51.012;5.648;2022-11-20T09:56:06;42.33;;;29.98;;
32633;SDS011;19043;51.012;5.648;2022-11-20T10:01:09;48.95;;;31.85;;
32633;SDS011;19043;51.012;5.648;2022-11-20T10:03:37;43.60;;;29.05;;
32633;SDS011;19043;51.012;5.648;2022-11-20T10:06:04;49.22;;;31.00;;
32633;SDS011;19043;51.012;5.648;2022-11-20T10:08:36;43.53;;;30.08;;
32633;SDS011;19043;51.012;5.648;2022-11-20T10:18:44;48.45;;;32.08;;
32633;SDS011;19043;51.012;5.648;2022-11-20T10:21:15;44.20;;;31.45;;
32633;SDS011;19043;51.012;5.648;2022-11-20T10:23:56;47.85;;;30.35;;
32633;SDS011;19043;51.012;5.648;2022-11-20T10:31:32;47.92;;;32.63;;
32633;SDS011;19043;51.012;5.648;2022-11-20T10:33:59;43.78;;;32.28;;
32633;SDS011;19043;51.012;5.648;2022-11-20T10:36:26;55.13;;;31.30;;
32633;SDS011;19043;51.012;5.648;2022-11-20T10:39:06;45.55;;;31.10;;
32633;SDS011;19043;51.012;5.648;2022-11-20T10:41:40;51.83;;;31.63;;
32633;SDS011;19043;51.012;5.648;2022-11-20T10:44:11;46.05;;;31.73;;
32633;SDS011;19043;51.012;5.648;2022-11-20T10:46:41;47.42;;;31.80;;
32633;SDS011;19043;51.012;5.648;2022-11-20T10:49:15;48.88;;;32.88;;
32633;SDS011;19043;51.012;5.648;2022-11-20T10:51:54;48.88;;;33.40;;
32633;SDS011;19043;51.012;5.648;2022-11-20T10:56:53;58.00;;;33.78;;
32633;SDS011;19043;51.012;5.648;2022-11-20T11:01:50;54.80;;;33.92;;
32633;SDS011;19043;51.012;5.648;2022-11-20T11:04:35;55.38;;;33.10;;
32633;SDS011;19043;51.012;5.648;2022-11-20T11:07:06;55.13;;;34.38;;
32633;SDS011;19043;51.012;5.648;2022-11-20T11:09:37;62.33;;;35.20;;
32633;SDS011;19043;51.012;5.648;2022-11-20T11:12:07;56.60;;;34.55;;
32633;SDS011;19043;51.012;5.648;2022-11-20T11:14:41;55.20;;;35.78;;
32633;SDS011;19043;51.012;5.648;2022-11-20T11:17:17;63.63;;;36.63;;
32633;SDS011;19043;51.012;5.648;2022-11-20T11:19:43;55.78;;;33.22;;
32633;SDS011;19043;51.012;5.648;2022-11-20T11:22:10;54.35;;;35.65;;
32633;SDS011;19043;51.012;5.648;2022-11-20T11:24:43;55.67;;;34.35;;
32633;SDS011;19043;51.012;5.648;2022-11-20T11:27:16;47.17;;;34.60;;
32633;SDS011;19043;51.012;5.648;2022-11-20T11:29:42;55.35;;;36.13;;
32633;SDS011;19043;51.012;5.648;2022-11-20T11:32:10;50.30;;;35.08;;
32633;SDS011;19043;51.012;5.648;2022-11-20T11:34:36;52.78;;;33.85;;
32633;SDS011;19043;51.012;5.648;2022-11-20T11:37:01;60.10;;;36.58;;
32633;SDS011;19043;51.012;5.648;2022-11-20T11:39:28;59.38;;;35.67;;
32633;SDS011;19043;51.012;5.648;2022-11-20T11:41:54;60.53;;;36.22;;
32633;SDS011;19043;51.012;5.648;2022-11-20T11:44:21;58.95;;;36.47;;
32633;SDS011;19043;51.012;5.648;2022-11-20T11:47:08;53.53;;;36.03;;
32633;SDS011;19043;51.012;5.648;2022-11-20T11:49:34;58.53;;;37.50;;
32633;SDS011;19043;51.012;5.648;2022-11-20T11:52:13;63.47;;;36.38;;
32633;SDS011;19043;51.012;5.648;2022-11-20T11:54:45;51.08;;;33.67;;
32633;SDS011;19043;51.012;5.648;2022-11-20T11:57:15;59.83;;;35.92;;
32633;SDS011;19043;51.012;5.648;2022-11-20T12:02:14;61.95;;;36.92;;
32633;SDS011;19043;51.012;5.648;2022-11-20T12:04:44;56.63;;;38.10;;
32633;SDS011;19043;51.012;5.648;2022-11-20T12:07:13;55.80;;;34.15;;
32633;SDS011;19043;51.012;5.648;2022-11-20T12:09:42;51.50;;;33.03;;
32633;SDS011;19043;51.012;5.648;2022-11-20T12:12:09;58.92;;;36.10;;
32633;SDS011;19043;51.012;5.648;2022-11-20T12:14:37;54.78;;;35.40;;
32633;SDS011;19043;51.012;5.648;2022-11-20T12:17:03;54.55;;;35.40;;
32633;SDS011;19043;51.012;5.648;2022-11-20T12:19:31;55.67;;;34.90;;
32633;SDS011;19043;51.012;5.648;2022-11-20T12:32:06;54.65;;;32.95;;
32633;SDS011;19043;51.012;5.648;2022-11-20T12:34:46;47.47;;;32.75;;
32633;SDS011;19043;51.012;5.648;2022-11-20T12:37:23;49.33;;;30.50;;
32633;SDS011;19043;51.012;5.648;2022-11-20T12:39:55;56.55;;;33.95;;
32633;SDS011;19043;51.012;5.648;2022-11-20T12:42:23;51.85;;;31.67;;
32633;SDS011;19043;51.012;5.648;2022-11-20T12:52:56;49.45;;;30.42;;
32633;SDS011;19043;51.012;5.648;2022-11-20T12:58:25;39.38;;;27.80;;
32633;SDS011;19043;51.012;5.648;2022-11-20T13:01:09;44.70;;;27.73;;
32633;SDS011;19043;51.012;5.648;2022-11-20T13:03:56;39.30;;;27.25;;
32633;SDS011;19043;51.012;5.648;2022-11-20T13:06:25;41.55;;;27.83;;
32633;SDS011;19043;51.012;5.648;2022-11-20T13:08:52;41.67;;;27.63;;
32633;SDS011;19043;51.012;5.648;2022-11-20T13:16:36;41.60;;;26.33;;
32633;SDS011;19043;51.012;5.648;2022-11-20T13:19:03;35.30;;;24.90;;
32633;SDS011;19043;51.012;5.648;2022-11-20T13:21:36;41.75;;;25.63;;
32633;SDS011;19043;51.012;5.648;2022-11-20T13:24:49;39.33;;;24.17;;
32633;SDS011;19043;51.012;5.648;2022-11-20T13:27:05;29.27;;;22.23;;
32633;SDS011;19043;51.012;5.648;2022-11-20T13:29:31;32.45;;;20.50;;
32633;SDS011;19043;51.012;5.648;2022-11-20T13:34:37;26.17;;;16.80;;
32633;SDS011;19043;51.012;5.648;2022-11-20T13:37:02;25.63;;;14.43;;
32633;SDS011;19043;51.012;5.648;2022-11-20T13:39:32;12.75;;;8.40;;
32633;SDS011;19043;51.012;5.648;2022-11-20T13:42:02;11.48;;;7.07;;
32633;SDS011;19043;51.012;5.648;2022-11-20T13:44:36;11.30;;;5.78;;
32633;SDS011;19043;51.012;5.648;2022-11-20T13:47:03;10.05;;;4.95;;
32633;SDS011;19043;51.012;5.648;2022-11-20T13:49:32;7.60;;;4.05;;
32633;SDS011;19043;51.012;5.648;2022-11-20T14:02:31;9.43;;;3.03;;
32633;SDS011;19043;51.012;5.648;2022-11-20T14:04:57;7.10;;;2.67;;
32633;SDS011;19043;51.012;5.648;2022-11-20T14:07:24;6.65;;;2.50;;
32633;SDS011;19043;51.012;5.648;2022-11-20T14:09:51;6.40;;;2.33;;
32633;SDS011;19043;51.012;5.648;2022-11-20T14:12:17;5.07;;;1.90;;
32633;SDS011;19043;51.012;5.648;2022-11-20T14:14:50;7.05;;;2.47;;
32633;SDS011;19043;51.012;5.648;2022-11-20T14:17:20;5.32;;;2.20;;
32633;SDS011;19043;51.012;5.648;2022-11-20T14:19:46;8.15;;;2.40;;
32633;SDS011;19043;51.012;5.648;2022-11-20T14:24:46;6.53;;;2.25;;
32633;SDS011;19043;51.012;5.648;2022-11-20T14:27:13;5.85;;;2.65;;
32633;SDS011;19043;51.012;5.648;2022-11-20T14:29:39;7.03;;;2.45;;
32633;SDS011;19043;51.012;5.648;2022-11-20T14:32:05;10.68;;;2.90;;
32633;SDS011;19043;51.012;5.648;2022-11-20T14:34:32;4.90;;;2.15;;
32633;SDS011;19043;51.012;5.648;2022-11-20T14:36:59;5.63;;;2.33;;
32633;SDS011;19043;51.012;5.648;2022-11-20T14:41:56;7.72;;;2.40;;
32633;SDS011;19043;51.012;5.648;2022-11-20T14:44:23;8.45;;;2.92;;
32633;SDS011;19043;51.012;5.648;2022-11-20T14:46:48;4.88;;;2.50;;
32633;SDS011;19043;51.012;5.648;2022-11-20T14:49:13;3.92;;;2.08;;
32633;SDS011;19043;51.012;5.648;2022-11-20T14:51:39;10.63;;;2.97;;
32633;SDS011;19043;51.012;5.648;2022-11-20T14:54:11;6.65;;;3.22;;
32633;SDS011;19043;51.012;5.648;2022-11-20T14:56:37;6.00;;;3.20;;
32633;SDS011;19043;51.012;5.648;2022-11-20T14:59:02;7.35;;;2.63;;
32633;SDS011;19043;51.012;5.648;2022-11-20T15:01:28;6.13;;;3.13;;
32633;SDS011;19043;51.012;5.648;2022-11-20T15:04:10;7.40;;;3.13;;
32633;SDS011;19043;51.012;5.648;2022-11-20T15:06:36;15.32;;;4.30;;
32633;SDS011;19043;51.012;5.648;2022-11-20T15:09:04;7.40;;;3.63;;
32633;SDS011;19043;51.012;5.648;2022-11-20T15:11:31;6.70;;;3.95;;
32633;SDS011;19043;51.012;5.648;2022-11-20T15:13:57;8.25;;;3.75;;
32633;SDS011;19043;51.012;5.648;2022-11-20T15:16:23;7.70;;;4.57;;
32633;SDS011;19043;51.012;5.648;2022-11-20T15:18:49;7.15;;;3.92;;
32633;SDS011;19043;51.012;5.648;2022-11-20T15:21:15;5.63;;;3.72;;
32633;SDS011;19043;51.012;5.648;2022-11-20T15:23:41;6.60;;;3.92;;
32633;SDS011;19043;51.012;5.648;2022-11-20T15:26:07;7.25;;;3.97;;
32633;SDS011;19043;51.012;5.648;2022-11-20T15:28:34;6.88;;;4.30;;
32633;SDS011;19043;51.012;5.648;2022-11-20T15:31:00;8.45;;;5.15;;
32633;SDS011;19043;51.012;5.648;2022-11-20T15:33:27;9.85;;;4.80;;
32633;SDS011;19043;51.012;5.648;2022-11-20T15:35:52;15.20;;;5.70;;
32633;SDS011;19043;51.012;5.648;2022-11-20T15:38:17;8.38;;;5.30;;
32633;SDS011;19043;51.012;5.648;2022-11-20T15:40:42;10.00;;;5.30;;
32633;SDS011;19043;51.012;5.648;2022-11-20T15:43:08;8.95;;;5.32;;
32633;SDS011;19043;51.012;5.648;2022-11-20T15:47:58;7.82;;;5.72;;
32633;SDS011;19043;51.012;5.648;2022-11-20T15:50:25;13.30;;;5.32;;
32633;SDS011;19043;51.012;5.648;2022-11-20T15:52:52;14.30;;;6.07;;
32633;SDS011;19043;51.012;5.648;2022-11-20T15:55:20;9.30;;;6.18;;
32633;SDS011;19043;51.012;5.648;2022-11-20T15:57:45;10.40;;;6.10;;